sensor_id;sensor_type;location;lat;lon;timestamp;P1;durP1;ratioP1;P2;durP2;ratioP2
25509;SDS011;13413;52.336;21.200;2022-10-30T00:05:51;33.40;;;24.70;;
25509;SDS011;13413;52.336;21.200;2022-10-30T00:09:24;34.50;;;23.10;;
25509;SDS011;13413;52.336;21.200;2022-10-30T00:12:55;32.10;;;22.90;;
25509;SDS011;13413;52.336;21.200;2022-10-30T00:20:43;28.40;;;21.50;;
25509;SDS011;13413;52.336;21.200;2022-10-30T00:24:03;35.40;;;23.60;;
25509;SDS011;13413;52.336;21.200;2022-10-30T00:31:02;31.60;;;22.80;;
25509;SDS011;13413;52.336;21.200;2022-10-30T00:34:35;35.50;;;25.00;;
25509;SDS011;13413;52.336;21.200;2022-10-30T00:37:55;36.10;;;26.20;;
25509;SDS011;13413;52.336;21.200;2022-10-30T00:41:15;41.30;;;25.40;;
25509;SDS011;13413;52.336;21.200;2022-10-30T00:53:04;37.60;;;27.80;;
25509;SDS011;13413;52.336;21.200;2022-10-30T00:56:28;30.50;;;21.50;;
25509;SDS011;13413;52.336;21.200;2022-10-30T01:00:17;39.00;;;29.30;;
25509;SDS011;13413;52.336;21.200;2022-10-30T01:03:39;45.00;;;29.30;;
25509;SDS011;13413;52.336;21.200;2022-10-30T01:07:14;37.40;;;26.70;;
25509;SDS011;13413;52.336;21.200;2022-10-30T01:15:17;38.90;;;27.70;;
25509;SDS011;13413;52.336;21.200;2022-10-30T01:18:41;40.30;;;27.20;;
25509;SDS011;13413;52.336;21.200;2022-10-30T01:22:17;40.60;;;27.90;;
25509;SDS011;13413;52.336;21.200;2022-10-30T01:25:47;37.10;;;26.50;;
25509;SDS011;13413;52.336;21.200;2022-10-30T01:29:32;38.40;;;25.70;;
25509;SDS011;13413;52.336;21.200;2022-10-30T01:33:21;34.40;;;25.60;;
25509;SDS011;13413;52.336;21.200;2022-10-30T01:36:54;34.60;;;25.70;;
25509;SDS011;13413;52.336;21.200;2022-10-30T01:40:26;37.50;;;25.50;;
25509;SDS011;13413;52.336;21.200;2022-10-30T01:44:00;37.70;;;25.00;;
25509;SDS011;13413;52.336;21.200;2022-10-30T01:47:25;33.10;;;23.90;;
25509;SDS011;13413;52.336;21.200;2022-10-30T01:50:56;30.60;;;24.60;;
25509;SDS011;13413;52.336;21.200;2022-10-30T01:58:19;37.90;;;24.00;;
25509;SDS011;13413;52.336;21.200;2022-10-30T02:01:43;31.20;;;24.80;;
25509;SDS011;13413;52.336;21.200;2022-10-30T02:05:18;35.30;;;25.40;;
25509;SDS011;13413;52.336;21.200;2022-10-30T02:08:57;27.70;;;23.40;;
25509;SDS011;13413;52.336;21.200;2022-10-30T02:12:24;29.00;;;23.00;;
25509;SDS011;13413;52.336;21.200;2022-10-30T02:15:52;30.70;;;24.70;;
25509;SDS011;13413;52.336;21.200;2022-10-30T02:19:12;36.50;;;23.30;;
25509;SDS011;13413;52.336;21.200;2022-10-30T02:22:32;33.20;;;23.80;;
25509;SDS011;13413;52.336;21.200;2022-10-30T02:25:51;32.20;;;23.50;;
25509;SDS011;13413;52.336;21.200;2022-10-30T02:44:10;30.40;;;25.00;;
25509;SDS011;13413;52.336;21.200;2022-10-30T02:47:37;45.30;;;27.70;;
25509;SDS011;13413;52.336;21.200;2022-10-30T02:50:59;42.40;;;26.50;;
25509;SDS011;13413;52.336;21.200;2022-10-30T02:54:33;42.00;;;26.90;;
25509;SDS011;13413;52.336;21.200;2022-10-30T02:57:54;36.80;;;25.20;;
25509;SDS011;13413;52.336;21.200;2022-10-30T03:01:15;32.80;;;24.90;;
25509;SDS011;13413;52.336;21.200;2022-10-30T03:04:49;38.00;;;25.40;;
25509;SDS011;13413;52.336;21.200;2022-10-30T03:08:35;32.60;;;24.60;;
25509;SDS011;13413;52.336;21.200;2022-10-30T03:11:55;34.80;;;24.60;;
25509;SDS011;13413;52.336;21.200;2022-10-30T03:15:21;33.50;;;23.60;;
25509;SDS011;13413;52.336;21.200;2022-10-30T03:18:41;32.40;;;22.50;;
25509;SDS011;13413;52.336;21.200;2022-10-30T03:22:01;29.60;;;23.60;;
25509;SDS011;13413;52.336;21.200;2022-10-30T03:25:28;30.80;;;23.20;;
25509;SDS011;13413;52.336;21.200;2022-10-30T03:34:50;31.20;;;23.60;;
25509;SDS011;13413;52.336;21.200;2022-10-30T03:38:09;32.80;;;23.80;;
25509;SDS011;13413;52.336;21.200;2022-10-30T03:41:30;32.10;;;23.70;;
25509;SDS011;13413;52.336;21.200;2022-10-30T03:48:31;30.50;;;23.60;;
25509;SDS011;13413;52.336;21.200;2022-10-30T03:51:49;32.80;;;23.90;;
25509;SDS011;13413;52.336;21.200;2022-10-30T03:55:18;32.80;;;24.10;;
25509;SDS011;13413;52.336;21.200;2022-10-30T03:58:51;36.00;;;24.70;;
25509;SDS011;13413;52.336;21.200;2022-10-30T04:02:10;30.10;;;23.60;;
25509;SDS011;13413;52.336;21.200;2022-10-30T04:05:30;35.20;;;25.10;;
25509;SDS011;13413;52.336;21.200;2022-10-30T04:15:56;34.50;;;25.30;;
25509;SDS011;13413;52.336;21.200;2022-10-30T04:19:16;31.80;;;23.30;;
25509;SDS011;13413;52.336;21.200;2022-10-30T04:22:35;55.70;;;34.40;;
25509;SDS011;13413;52.336;21.200;2022-10-30T04:30:17;59.00;;;36.90;;
25509;SDS011;13413;52.336;21.200;2022-10-30T04:33:37;61.50;;;40.90;;
25509;SDS011;13413;52.336;21.200;2022-10-30T04:37:03;41.70;;;28.50;;
25509;SDS011;13413;52.336;21.200;2022-10-30T04:40:31;32.10;;;24.70;;
25509;SDS011;13413;52.336;21.200;2022-10-30T04:44:06;35.00;;;24.30;;
25509;SDS011;13413;52.336;21.200;2022-10-30T04:47:26;37.00;;;25.10;;
25509;SDS011;13413;52.336;21.200;2022-10-30T04:50:46;35.80;;;26.80;;
25509;SDS011;13413;52.336;21.200;2022-10-30T04:54:06;35.90;;;25.70;;
25509;SDS011;13413;52.336;21.200;2022-10-30T04:57:26;32.40;;;25.30;;
25509;SDS011;13413;52.336;21.200;2022-10-30T05:00:46;37.40;;;26.70;;
25509;SDS011;13413;52.336;21.200;2022-10-30T05:19:07;30.50;;;21.80;;
25509;SDS011;13413;52.336;21.200;2022-10-30T05:22:33;30.90;;;23.70;;
25509;SDS011;13413;52.336;21.200;2022-10-30T05:25:52;32.90;;;23.60;;
25509;SDS011;13413;52.336;21.200;2022-10-30T05:29:13;32.80;;;24.50;;
25509;SDS011;13413;52.336;21.200;2022-10-30T05:32:32;35.20;;;24.30;;
25509;SDS011;13413;52.336;21.200;2022-10-30T05:36:00;35.70;;;23.30;;
25509;SDS011;13413;52.336;21.200;2022-10-30T05:39:33;35.00;;;24.10;;
25509;SDS011;13413;52.336;21.200;2022-10-30T05:42:53;30.90;;;23.10;;
25509;SDS011;13413;52.336;21.200;2022-10-30T05:46:14;37.60;;;23.40;;
25509;SDS011;13413;52.336;21.200;2022-10-30T05:49:47;46.60;;;28.10;;
25509;SDS011;13413;52.336;21.200;2022-10-30T05:53:21;41.00;;;28.10;;
25509;SDS011;13413;52.336;21.200;2022-10-30T05:56:41;33.50;;;24.90;;
25509;SDS011;13413;52.336;21.200;2022-10-30T06:00:16;38.80;;;26.10;;
25509;SDS011;13413;52.336;21.200;2022-10-30T06:09:38;34.60;;;23.50;;
25509;SDS011;13413;52.336;21.200;2022-10-30T06:12:59;32.60;;;22.50;;
25509;SDS011;13413;52.336;21.200;2022-10-30T06:16:19;36.60;;;25.20;;
25509;SDS011;13413;52.336;21.200;2022-10-30T06:19:52;39.10;;;25.20;;
25509;SDS011;13413;52.336;21.200;2022-10-30T06:23:25;33.90;;;23.30;;
25509;SDS011;13413;52.336;21.200;2022-10-30T06:26:44;35.50;;;22.00;;
25509;SDS011;13413;52.336;21.200;2022-10-30T06:30:04;31.20;;;21.70;;
25509;SDS011;13413;52.336;21.200;2022-10-30T06:33:26;34.40;;;22.30;;
25509;SDS011;13413;52.336;21.200;2022-10-30T06:36:48;30.90;;;21.90;;
25509;SDS011;13413;52.336;21.200;2022-10-30T06:53:53;36.20;;;26.00;;
25509;SDS011;13413;52.336;21.200;2022-10-30T06:57:14;32.80;;;24.90;;
25509;SDS011;13413;52.336;21.200;2022-10-30T07:00:41;31.40;;;23.70;;
25509;SDS011;13413;52.336;21.200;2022-10-30T07:04:01;34.00;;;22.30;;
25509;SDS011;13413;52.336;21.200;2022-10-30T07:11:07;30.60;;;22.10;;
25509;SDS011;13413;52.336;21.200;2022-10-30T07:24:44;31.80;;;21.30;;
25509;SDS011;13413;52.336;21.200;2022-10-30T07:28:04;31.40;;;21.80;;
25509;SDS011;13413;52.336;21.200;2022-10-30T07:31:24;28.40;;;20.10;;
25509;SDS011;13413;52.336;21.200;2022-10-30T07:34:43;29.30;;;20.10;;
25509;SDS011;13413;52.336;21.200;2022-10-30T07:49:46;28.40;;;19.40;;
25509;SDS011;13413;52.336;21.200;2022-10-30T07:53:06;29.80;;;19.40;;
25509;SDS011;13413;52.336;21.200;2022-10-30T07:56:25;29.30;;;17.90;;
25509;SDS011;13413;52.336;21.200;2022-10-30T07:59:44;27.10;;;18.10;;
25509;SDS011;13413;52.336;21.200;2022-10-30T08:03:11;33.10;;;22.00;;
25509;SDS011;13413;52.336;21.200;2022-10-30T08:06:31;40.70;;;24.90;;
25509;SDS011;13413;52.336;21.200;2022-10-30T08:10:05;47.50;;;30.80;;
25509;SDS011;13413;52.336;21.200;2022-10-30T08:13:25;32.30;;;23.00;;
25509;SDS011;13413;52.336;21.200;2022-10-30T08:16:45;28.00;;;18.60;;
25509;SDS011;13413;52.336;21.200;2022-10-30T08:20:19;30.30;;;17.60;;
25509;SDS011;13413;52.336;21.200;2022-10-30T08:23:39;28.00;;;17.40;;
25509;SDS011;13413;52.336;21.200;2022-10-30T08:26:58;28.50;;;17.00;;
25509;SDS011;13413;52.336;21.200;2022-10-30T08:30:26;24.10;;;15.70;;
25509;SDS011;13413;52.336;21.200;2022-10-30T08:34:00;23.00;;;14.50;;
25509;SDS011;13413;52.336;21.200;2022-10-30T08:37:28;24.80;;;14.10;;
25509;SDS011;13413;52.336;21.200;2022-10-30T08:40:48;29.00;;;15.20;;
25509;SDS011;13413;52.336;21.200;2022-10-30T08:44:21;25.30;;;14.10;;
25509;SDS011;13413;52.336;21.200;2022-10-30T08:47:41;27.80;;;14.60;;
25509;SDS011;13413;52.336;21.200;2022-10-30T08:51:00;19.10;;;13.60;;
25509;SDS011;13413;52.336;21.200;2022-10-30T08:54:20;21.10;;;12.20;;
25509;SDS011;13413;52.336;21.200;2022-10-30T08:57:40;17.60;;;12.20;;
25509;SDS011;13413;52.336;21.200;2022-10-30T09:01:00;23.50;;;11.50;;
25509;SDS011;13413;52.336;21.200;2022-10-30T09:04:27;20.40;;;10.80;;
25509;SDS011;13413;52.336;21.200;2022-10-30T09:08:00;18.40;;;9.80;;
25509;SDS011;13413;52.336;21.200;2022-10-30T09:24:39;14.80;;;7.90;;
25509;SDS011;13413;52.336;21.200;2022-10-30T09:27:59;13.10;;;6.90;;
25509;SDS011;13413;52.336;21.200;2022-10-30T09:31:19;13.20;;;6.50;;
25509;SDS011;13413;52.336;21.200;2022-10-30T09:34:46;23.30;;;7.90;;
25509;SDS011;13413;52.336;21.200;2022-10-30T09:38:05;13.80;;;6.60;;
25509;SDS011;13413;52.336;21.200;2022-10-30T09:41:29;12.10;;;8.00;;
25509;SDS011;13413;52.336;21.200;2022-10-30T09:45:06;17.80;;;9.50;;
25509;SDS011;13413;52.336;21.200;2022-10-30T09:52:42;16.70;;;5.70;;
25509;SDS011;13413;52.336;21.200;2022-10-30T09:56:11;10.10;;;5.60;;
25509;SDS011;13413;52.336;21.200;2022-10-30T09:59:50;17.60;;;6.20;;
25509;SDS011;13413;52.336;21.200;2022-10-30T10:03:35;17.20;;;7.00;;
25509;SDS011;13413;52.336;21.200;2022-10-30T10:11:13;10.10;;;5.20;;
25509;SDS011;13413;52.336;21.200;2022-10-30T10:14:51;12.90;;;6.30;;
25509;SDS011;13413;52.336;21.200;2022-10-30T10:18:14;12.60;;;5.50;;
25509;SDS011;13413;52.336;21.200;2022-10-30T10:21:35;10.70;;;5.90;;
25509;SDS011;13413;52.336;21.200;2022-10-30T10:24:59;12.80;;;5.40;;
25509;SDS011;13413;52.336;21.200;2022-10-30T10:28:26;10.40;;;6.00;;
25509;SDS011;13413;52.336;21.200;2022-10-30T10:35:59;23.20;;;19.30;;
25509;SDS011;13413;52.336;21.200;2022-10-30T10:39:38;13.90;;;8.00;;
25509;SDS011;13413;52.336;21.200;2022-10-30T10:47:04;14.40;;;8.70;;
25509;SDS011;13413;52.336;21.200;2022-10-30T10:50:43;11.00;;;6.30;;
25509;SDS011;13413;52.336;21.200;2022-10-30T10:54:09;15.20;;;7.50;;
25509;SDS011;13413;52.336;21.200;2022-10-30T10:57:46;13.60;;;7.50;;
25509;SDS011;13413;52.336;21.200;2022-10-30T11:01:11;16.10;;;5.90;;
25509;SDS011;13413;52.336;21.200;2022-10-30T11:04:48;12.40;;;6.60;;
25509;SDS011;13413;52.336;21.200;2022-10-30T11:08:26;10.50;;;4.80;;
25509;SDS011;13413;52.336;21.200;2022-10-30T11:11:47;7.80;;;4.60;;
25509;SDS011;13413;52.336;21.200;2022-10-30T11:15:28;9.40;;;6.10;;
25509;SDS011;13413;52.336;21.200;2022-10-30T11:18:54;9.40;;;6.00;;
25509;SDS011;13413;52.336;21.200;2022-10-30T11:22:17;11.60;;;6.60;;
25509;SDS011;13413;52.336;21.200;2022-10-30T11:29:00;12.00;;;5.30;;
25509;SDS011;13413;52.336;21.200;2022-10-30T11:35:43;9.30;;;5.10;;
25509;SDS011;13413;52.336;21.200;2022-10-30T11:39:17;8.20;;;2.80;;
25509;SDS011;13413;52.336;21.200;2022-10-30T11:42:39;7.70;;;2.90;;
25509;SDS011;13413;52.336;21.200;2022-10-30T11:46:02;5.10;;;2.90;;
25509;SDS011;13413;52.336;21.200;2022-10-30T11:49:29;3.80;;;3.20;;
25509;SDS011;13413;52.336;21.200;2022-10-30T11:52:54;9.70;;;3.00;;
25509;SDS011;13413;52.336;21.200;2022-10-30T11:56:18;5.60;;;2.50;;
25509;SDS011;13413;52.336;21.200;2022-10-30T12:00:02;4.60;;;3.40;;
25509;SDS011;13413;52.336;21.200;2022-10-30T12:03:34;8.00;;;2.80;;
25509;SDS011;13413;52.336;21.200;2022-10-30T12:07:10;13.20;;;6.90;;
25509;SDS011;13413;52.336;21.200;2022-10-30T12:10:52;16.40;;;11.20;;
25509;SDS011;13413;52.336;21.200;2022-10-30T12:18:03;7.10;;;5.70;;
25509;SDS011;13413;52.336;21.200;2022-10-30T12:21:25;17.60;;;10.80;;
25509;SDS011;13413;52.336;21.200;2022-10-30T12:24:47;12.30;;;9.50;;
25509;SDS011;13413;52.336;21.200;2022-10-30T12:28:07;20.20;;;13.90;;
25509;SDS011;13413;52.336;21.200;2022-10-30T12:31:35;9.30;;;5.50;;
25509;SDS011;13413;52.336;21.200;2022-10-30T12:35:20;16.00;;;11.70;;
25509;SDS011;13413;52.336;21.200;2022-10-30T12:39:03;12.90;;;8.70;;
25509;SDS011;13413;52.336;21.200;2022-10-30T12:42:36;11.70;;;5.70;;
25509;SDS011;13413;52.336;21.200;2022-10-30T12:46:20;6.40;;;4.60;;
25509;SDS011;13413;52.336;21.200;2022-10-30T12:49:56;6.40;;;4.10;;
25509;SDS011;13413;52.336;21.200;2022-10-30T12:53:35;7.60;;;3.30;;
25509;SDS011;13413;52.336;21.200;2022-10-30T12:57:02;6.20;;;2.90;;
25509;SDS011;13413;52.336;21.200;2022-10-30T13:05:18;6.00;;;3.20;;
25509;SDS011;13413;52.336;21.200;2022-10-30T13:08:46;9.00;;;6.10;;
25509;SDS011;13413;52.336;21.200;2022-10-30T13:12:17;6.60;;;3.00;;
25509;SDS011;13413;52.336;21.200;2022-10-30T13:29:17;9.10;;;4.30;;
25509;SDS011;13413;52.336;21.200;2022-10-30T13:32:54;6.90;;;3.90;;
25509;SDS011;13413;52.336;21.200;2022-10-30T13:36:23;5.00;;;3.80;;
25509;SDS011;13413;52.336;21.200;2022-10-30T13:40:09;4.80;;;3.30;;
25509;SDS011;13413;52.336;21.200;2022-10-30T13:43:39;6.00;;;3.40;;
25509;SDS011;13413;52.336;21.200;2022-10-30T13:47:16;4.90;;;3.30;;
25509;SDS011;13413;52.336;21.200;2022-10-30T13:50:50;8.70;;;3.50;;
25509;SDS011;13413;52.336;21.200;2022-10-30T13:54:51;5.60;;;3.20;;
25509;SDS011;13413;52.336;21.200;2022-10-30T13:58:31;4.50;;;3.30;;
25509;SDS011;13413;52.336;21.200;2022-10-30T14:01:57;5.80;;;4.20;;
25509;SDS011;13413;52.336;21.200;2022-10-30T14:10:09;18.00;;;5.00;;
25509;SDS011;13413;52.336;21.200;2022-10-30T14:13:44;22.10;;;11.40;;
25509;SDS011;13413;52.336;21.200;2022-10-30T14:17:10;10.60;;;7.20;;
25509;SDS011;13413;52.336;21.200;2022-10-30T14:20:38;12.10;;;7.10;;
25509;SDS011;13413;52.336;21.200;2022-10-30T14:24:16;7.20;;;6.30;;
25509;SDS011;13413;52.336;21.200;2022-10-30T14:27:39;10.10;;;7.00;;
25509;SDS011;13413;52.336;21.200;2022-10-30T14:31:03;11.20;;;6.70;;
25509;SDS011;13413;52.336;21.200;2022-10-30T14:34:43;15.20;;;9.40;;
25509;SDS011;13413;52.336;21.200;2022-10-30T14:38:24;14.10;;;9.50;;
25509;SDS011;13413;52.336;21.200;2022-10-30T14:41:57;36.40;;;20.50;;
25509;SDS011;13413;52.336;21.200;2022-10-30T14:45:28;18.70;;;15.00;;
25509;SDS011;13413;52.336;21.200;2022-10-30T14:49:11;18.10;;;14.60;;
25509;SDS011;13413;52.336;21.200;2022-10-30T14:56:43;12.40;;;8.60;;
25509;SDS011;13413;52.336;21.200;2022-10-30T15:00:36;12.30;;;7.40;;
25509;SDS011;13413;52.336;21.200;2022-10-30T15:04:16;11.00;;;8.20;;
25509;SDS011;13413;52.336;21.200;2022-10-30T15:07:42;14.10;;;9.20;;
25509;SDS011;13413;52.336;21.200;2022-10-30T15:11:16;15.60;;;10.30;;
25509;SDS011;13413;52.336;21.200;2022-10-30T15:14:51;20.00;;;12.60;;
25509;SDS011;13413;52.336;21.200;2022-10-30T15:18:16;19.80;;;12.40;;
25509;SDS011;13413;52.336;21.200;2022-10-30T15:21:38;21.70;;;12.00;;
25509;SDS011;13413;52.336;21.200;2022-10-30T15:25:17;13.30;;;10.50;;
25509;SDS011;13413;52.336;21.200;2022-10-30T15:28:37;22.20;;;13.10;;
25509;SDS011;13413;52.336;21.200;2022-10-30T15:32:01;13.00;;;10.80;;
25509;SDS011;13413;52.336;21.200;2022-10-30T15:35:22;14.00;;;10.70;;
25509;SDS011;13413;52.336;21.200;2022-10-30T15:39:04;20.50;;;10.50;;
25509;SDS011;13413;52.336;21.200;2022-10-30T15:42:33;18.40;;;11.10;;
25509;SDS011;13413;52.336;21.200;2022-10-30T15:46:01;16.40;;;11.50;;
25509;SDS011;13413;52.336;21.200;2022-10-30T15:49:28;20.30;;;13.70;;
25509;SDS011;13413;52.336;21.200;2022-10-30T15:53:03;22.50;;;14.20;;
25509;SDS011;13413;52.336;21.200;2022-10-30T15:56:25;23.90;;;15.70;;
25509;SDS011;13413;52.336;21.200;2022-10-30T16:00:19;21.10;;;15.70;;
25509;SDS011;13413;52.336;21.200;2022-10-30T16:03:40;23.50;;;16.40;;
25509;SDS011;13413;52.336;21.200;2022-10-30T16:07:15;24.00;;;15.50;;
25509;SDS011;13413;52.336;21.200;2022-10-30T16:10:44;32.90;;;18.20;;
25509;SDS011;13413;52.336;21.200;2022-10-30T16:14:20;26.50;;;17.40;;
25509;SDS011;13413;52.336;21.200;2022-10-30T16:17:47;28.30;;;17.70;;
25509;SDS011;13413;52.336;21.200;2022-10-30T16:21:15;29.60;;;21.50;;
25509;SDS011;13413;52.336;21.200;2022-10-30T16:24:38;30.80;;;21.50;;
25509;SDS011;13413;52.336;21.200;2022-10-30T16:28:26;33.10;;;21.80;;
25509;SDS011;13413;52.336;21.200;2022-10-30T16:31:47;44.40;;;23.00;;
25509;SDS011;13413;52.336;21.200;2022-10-30T16:35:26;41.60;;;26.40;;
25509;SDS011;13413;52.336;21.200;2022-10-30T16:38:47;42.30;;;27.30;;
25509;SDS011;13413;52.336;21.200;2022-10-30T16:42:22;48.20;;;27.80;;
25509;SDS011;13413;52.336;21.200;2022-10-30T16:45:47;51.40;;;30.30;;
25509;SDS011;13413;52.336;21.200;2022-10-30T16:49:11;43.50;;;27.40;;
25509;SDS011;13413;52.336;21.200;2022-10-30T16:52:40;38.30;;;26.40;;
25509;SDS011;13413;52.336;21.200;2022-10-30T16:56:00;47.00;;;30.20;;
25509;SDS011;13413;52.336;21.200;2022-10-30T16:59:44;45.00;;;30.10;;
25509;SDS011;13413;52.336;21.200;2022-10-30T17:03:07;41.80;;;29.00;;
25509;SDS011;13413;52.336;21.200;2022-10-30T17:06:36;38.50;;;28.00;;
25509;SDS011;13413;52.336;21.200;2022-10-30T17:10:30;38.60;;;27.60;;
25509;SDS011;13413;52.336;21.200;2022-10-30T17:14:01;38.10;;;26.90;;
25509;SDS011;13413;52.336;21.200;2022-10-30T17:17:32;35.00;;;24.90;;
25509;SDS011;13413;52.336;21.200;2022-10-30T17:20:57;29.00;;;22.10;;
25509;SDS011;13413;52.336;21.200;2022-10-30T17:24:36;33.10;;;23.30;;
25509;SDS011;13413;52.336;21.200;2022-10-30T17:28:21;32.00;;;23.70;;
25509;SDS011;13413;52.336;21.200;2022-10-30T17:31:45;34.10;;;23.30;;
25509;SDS011;13413;52.336;21.200;2022-10-30T17:44:26;39.70;;;27.70;;
25509;SDS011;13413;52.336;21.200;2022-10-30T17:48:06;40.50;;;27.20;;
25509;SDS011;13413;52.336;21.200;2022-10-30T17:51:30;42.50;;;28.70;;
25509;SDS011;13413;52.336;21.200;2022-10-30T17:55:03;37.50;;;25.70;;
25509;SDS011;13413;52.336;21.200;2022-10-30T17:58:37;31.80;;;24.50;;
25509;SDS011;13413;52.336;21.200;2022-10-30T18:01:57;34.50;;;25.20;;
25509;SDS011;13413;52.336;21.200;2022-10-30T18:10:17;50.00;;;32.50;;
25509;SDS011;13413;52.336;21.200;2022-10-30T18:13:37;47.90;;;31.40;;
25509;SDS011;13413;52.336;21.200;2022-10-30T18:16:57;56.20;;;32.70;;
25509;SDS011;13413;52.336;21.200;2022-10-30T18:20:24;59.50;;;32.70;;
25509;SDS011;13413;52.336;21.200;2022-10-30T18:23:58;58.40;;;38.60;;
25509;SDS011;13413;52.336;21.200;2022-10-30T18:27:17;62.30;;;37.40;;
25509;SDS011;13413;52.336;21.200;2022-10-30T18:30:44;52.60;;;36.80;;
25509;SDS011;13413;52.336;21.200;2022-10-30T18:34:20;48.90;;;32.40;;
25509;SDS011;13413;52.336;21.200;2022-10-30T18:37:47;58.70;;;35.60;;
25509;SDS011;13413;52.336;21.200;2022-10-30T18:41:07;62.30;;;37.90;;
25509;SDS011;13413;52.336;21.200;2022-10-30T18:54:09;63.30;;;41.60;;
25509;SDS011;13413;52.336;21.200;2022-10-30T18:57:36;61.70;;;45.30;;
25509;SDS011;13413;52.336;21.200;2022-10-30T19:00:55;65.40;;;43.10;;
25509;SDS011;13413;52.336;21.200;2022-10-30T19:04:27;63.60;;;40.20;;
25509;SDS011;13413;52.336;21.200;2022-10-30T19:08:00;65.40;;;44.60;;
25509;SDS011;13413;52.336;21.200;2022-10-30T19:11:19;53.20;;;38.00;;
25509;SDS011;13413;52.336;21.200;2022-10-30T19:14:45;67.20;;;40.30;;
25509;SDS011;13413;52.336;21.200;2022-10-30T19:18:04;66.50;;;42.90;;
25509;SDS011;13413;52.336;21.200;2022-10-30T19:21:24;62.60;;;41.70;;
25509;SDS011;13413;52.336;21.200;2022-10-30T19:24:42;60.10;;;41.00;;
25509;SDS011;13413;52.336;21.200;2022-10-30T19:29:55;66.60;;;41.10;;
25509;SDS011;13413;52.336;21.200;2022-10-30T19:33:13;59.70;;;40.90;;
25509;SDS011;13413;52.336;21.200;2022-10-30T19:36:33;59.70;;;39.20;;
25509;SDS011;13413;52.336;21.200;2022-10-30T19:40:00;56.20;;;38.50;;
25509;SDS011;13413;52.336;21.200;2022-10-30T19:43:32;63.80;;;41.80;;
25509;SDS011;13413;52.336;21.200;2022-10-30T19:46:50;64.90;;;42.90;;
25509;SDS011;13413;52.336;21.200;2022-10-30T19:50:25;67.70;;;42.80;;
25509;SDS011;13413;52.336;21.200;2022-10-30T19:53:59;74.60;;;44.60;;
25509;SDS011;13413;52.336;21.200;2022-10-30T19:57:24;74.40;;;46.70;;
25509;SDS011;13413;52.336;21.200;2022-10-30T20:00:49;72.40;;;46.10;;
25509;SDS011;13413;52.336;21.200;2022-10-30T20:04:22;83.20;;;50.10;;
25509;SDS011;13413;52.336;21.200;2022-10-30T20:07:58;81.90;;;53.90;;
25509;SDS011;13413;52.336;21.200;2022-10-30T20:11:17;75.00;;;50.00;;
25509;SDS011;13413;52.336;21.200;2022-10-30T20:14:49;70.80;;;51.20;;
25509;SDS011;13413;52.336;21.200;2022-10-30T20:18:23;75.50;;;53.50;;
25509;SDS011;13413;52.336;21.200;2022-10-30T20:21:42;79.80;;;51.30;;
25509;SDS011;13413;52.336;21.200;2022-10-30T20:25:15;77.90;;;52.50;;
25509;SDS011;13413;52.336;21.200;2022-10-30T20:28:34;77.70;;;53.80;;
25509;SDS011;13413;52.336;21.200;2022-10-30T20:31:53;77.40;;;52.20;;
25509;SDS011;13413;52.336;21.200;2022-10-30T20:40:08;74.40;;;52.40;;
25509;SDS011;13413;52.336;21.200;2022-10-30T20:43:30;55.40;;;39.70;;
25509;SDS011;13413;52.336;21.200;2022-10-30T20:46:57;73.90;;;51.90;;
25509;SDS011;13413;52.336;21.200;2022-10-30T20:59:30;63.70;;;47.40;;
25509;SDS011;13413;52.336;21.200;2022-10-30T21:02:50;72.40;;;46.50;;
25509;SDS011;13413;52.336;21.200;2022-10-30T21:06:09;79.70;;;48.30;;
25509;SDS011;13413;52.336;21.200;2022-10-30T21:09:42;68.00;;;47.80;;
25509;SDS011;13413;52.336;21.200;2022-10-30T21:24:31;67.10;;;47.80;;
25509;SDS011;13413;52.336;21.200;2022-10-30T21:27:51;74.60;;;48.50;;
25509;SDS011;13413;52.336;21.200;2022-10-30T21:31:13;70.80;;;48.90;;
25509;SDS011;13413;52.336;21.200;2022-10-30T21:34:46;68.50;;;47.60;;
25509;SDS011;13413;52.336;21.200;2022-10-30T21:38:06;70.40;;;47.30;;
25509;SDS011;13413;52.336;21.200;2022-10-30T21:41:25;74.20;;;50.50;;
25509;SDS011;13413;52.336;21.200;2022-10-30T21:44:44;71.90;;;50.30;;
25509;SDS011;13413;52.336;21.200;2022-10-30T21:48:03;81.30;;;55.20;;
25509;SDS011;13413;52.336;21.200;2022-10-30T21:51:23;85.20;;;54.90;;
25509;SDS011;13413;52.336;21.200;2022-10-30T21:54:51;85.00;;;57.70;;
25509;SDS011;13413;52.336;21.200;2022-10-30T21:58:25;93.50;;;58.80;;
25509;SDS011;13413;52.336;21.200;2022-10-30T22:01:46;87.20;;;57.90;;
25509;SDS011;13413;52.336;21.200;2022-10-30T22:05:19;85.00;;;56.10;;
25509;SDS011;13413;52.336;21.200;2022-10-30T22:08:53;91.50;;;59.60;;
25509;SDS011;13413;52.336;21.200;2022-10-30T22:15:54;93.70;;;60.20;;
25509;SDS011;13413;52.336;21.200;2022-10-30T22:19:14;87.90;;;55.80;;
25509;SDS011;13413;52.336;21.200;2022-10-30T22:22:48;83.40;;;55.70;;
25509;SDS011;13413;52.336;21.200;2022-10-30T22:26:09;92.70;;;57.20;;
25509;SDS011;13413;52.336;21.200;2022-10-30T22:37:42;76.50;;;51.60;;
25509;SDS011;13413;52.336;21.200;2022-10-30T22:41:11;80.00;;;53.10;;
25509;SDS011;13413;52.336;21.200;2022-10-30T22:44:34;77.30;;;50.50;;
25509;SDS011;13413;52.336;21.200;2022-10-30T22:47:54;83.10;;;50.40;;
25509;SDS011;13413;52.336;21.200;2022-10-30T22:55:05;74.70;;;48.30;;
25509;SDS011;13413;52.336;21.200;2022-10-30T22:58:28;77.40;;;51.40;;
25509;SDS011;13413;52.336;21.200;2022-10-30T23:01:54;78.40;;;49.00;;
25509;SDS011;13413;52.336;21.200;2022-10-30T23:09:15;70.30;;;49.00;;
25509;SDS011;13413;52.336;21.200;2022-10-30T23:12:42;68.20;;;46.70;;
25509;SDS011;13413;52.336;21.200;2022-10-30T23:16:02;63.40;;;46.30;;
25509;SDS011;13413;52.336;21.200;2022-10-30T23:19:36;65.90;;;48.20;;
25509;SDS011;13413;52.336;21.200;2022-10-30T23:23:09;70.30;;;48.70;;
25509;SDS011;13413;52.336;21.200;2022-10-30T23:30:01;80.00;;;55.30;;
25509;SDS011;13413;52.336;21.200;2022-10-30T23:33:21;76.70;;;54.00;;
25509;SDS011;13413;52.336;21.200;2022-10-30T23:36:42;85.10;;;55.90;;
25509;SDS011;13413;52.336;21.200;2022-10-30T23:40:01;76.20;;;56.40;;
25509;SDS011;13413;52.336;21.200;2022-10-30T23:43:21;78.80;;;57.40;;
25509;SDS011;13413;52.336;21.200;2022-10-30T23:46:41;80.00;;;56.90;;
25509;SDS011;13413;52.336;21.200;2022-10-30T23:50:15;85.80;;;60.90;;
25509;SDS011;13413;52.336;21.200;2022-10-30T23:53:34;83.90;;;61.10;;
25509;SDS011;13413;52.336;21.200;2022-10-30T23:56:53;89.20;;;60.20;;
